Terminal Aerodrome Forecast
Issued by NWS

Home | Current Version | Previous Version | Text Only | Print | Product List | Glossary On
Versions: 1 2 3 4 5 6 7 8 9 10 11 12 13 14 15 16 17 18 19 20 21 22 23 24 25 26 27 28 29 30
000
FTUS41 KLWX 182342
TAFMTN
TAF
KMTN 182342Z 1900/1924 14012G20KT P6SM SCT250
     FM190900 17011G22KT P6SM SCT015 BKN100
     FM191200 17012G23KT P6SM SCT015 OVC025
     FM191600 16013G25KT P6SM OVC015
     FM191800 16014G27KT P6SM -SHRA VCTS OVC025CB
     FM192100 16013G26KT 5SM SHRA VCTS SCT025CB OVC035CB
     AMD NOT SKED 1902/1912=

USA.gov is the U.S. government's official web portal to all federal, state and local government web resources and services.